Time;durP1;ratioP1;P1;durP2;ratioP2;P2;SDS_P1;SDS_P2;PMS_P1;PMS_P2;Temp;Humidity;BMP_temperature;BMP_pressure;BME280_temperature;BME280_humidity;BME280_pressure;Samples;Min_cycle;Max_cycle;Signal;HPM_P1;HPM_P2
2023/04/14 00:01:28;;;;;;;4.25;2.30;;;7.40;99.90;;;;;;5039216;28;20036;-43
2023/04/14 00:03:54;;;;;;;4.30;1.65;;;7.40;99.90;;;;;;5036838;28;20648;-43
2023/04/14 00:06:20;;;;;;;3.83;1.90;;;7.30;99.90;;;;;;5037744;28;20468;-44
2023/04/14 00:08:45;;;;;;;4.97;1.85;;;7.30;99.90;;;;;;5037216;28;20060;-43
2023/04/14 00:11:11;;;;;;;2.90;1.98;;;7.30;99.90;;;;;;5037915;28;20425;-42
2023/04/14 00:13:36;;;;;;;2.60;1.65;;;7.20;99.90;;;;;;5037116;28;20036;-43
2023/04/14 00:16:02;;;;;;;6.00;2.08;;;7.20;99.90;;;;;;5036020;28;20531;-43
2023/04/14 00:18:28;;;;;;;2.72;1.70;;;7.20;99.90;;;;;;5040056;28;20041;-43
2023/04/14 00:20:53;;;;;;;4.53;2.20;;;7.20;99.90;;;;;;5040277;28;20040;-42
2023/04/14 00:23:19;;;;;;;3.90;2.10;;;7.20;99.90;;;;;;5039734;28;20040;-42
2023/04/14 00:25:45;;;;;;;5.30;1.95;;;7.20;99.90;;;;;;5040427;28;20060;-43
2023/04/14 00:28:11;;;;;;;4.38;2.08;;;7.20;99.90;;;;;;5040868;28;20021;-43
2023/04/14 00:30:37;;;;;;;8.77;2.97;;;7.10;99.90;;;;;;5038416;28;20025;-42
2023/04/14 00:33:02;;;;;;;3.70;2.47;;;7.10;99.90;;;;;;5039910;28;20027;-42
2023/04/14 00:35:28;;;;;;;4.88;2.50;;;7.00;99.90;;;;;;5040047;28;20029;-43
2023/04/14 00:37:55;;;;;;;3.58;1.85;;;7.00;99.90;;;;;;5038609;28;20033;-43
2023/04/14 00:40:21;;;;;;;4.50;2.40;;;6.90;99.90;;;;;;5034615;28;20033;-43
2023/04/14 00:42:47;;;;;;;4.53;2.35;;;6.90;99.90;;;;;;5022032;28;20482;-43
2023/04/14 00:45:13;;;;;;;7.65;3.10;;;6.90;99.90;;;;;;5040042;28;20021;-43
2023/04/14 00:47:41;;;;;;;3.97;2.45;;;6.80;99.90;;;;;;5039469;28;20729;-43
2023/04/14 00:50:08;;;;;;;3.83;2.45;;;6.80;99.90;;;;;;5039532;28;20049;-43
2023/04/14 00:52:36;;;;;;;6.32;2.97;;;6.80;99.90;;;;;;5039724;28;20096;-42
2023/04/14 00:55:03;;;;;;;11.40;2.08;;;6.80;99.90;;;;;;5039054;28;20029;-42
2023/04/14 00:57:29;;;;;;;3.03;2.20;;;6.80;99.90;;;;;;5039591;28;20060;-42
2023/04/14 00:59:57;;;;;;;6.97;2.88;;;6.80;99.90;;;;;;5038485;28;20104;-43
2023/04/14 01:02:24;;;;;;;4.55;2.63;;;6.80;99.90;;;;;;5039306;28;20152;-42
2023/04/14 01:04:50;;;;;;;3.42;2.72;;;6.80;99.90;;;;;;5039129;28;20108;-43
2023/04/14 01:07:16;;;;;;;6.93;3.17;;;6.80;99.90;;;;;;5039624;28;20025;-43
2023/04/14 01:09:42;;;;;;;6.28;2.88;;;6.80;99.90;;;;;;5039429;28;20028;-43
2023/04/14 01:12:24;;;;;;;5.53;2.63;;;6.70;99.90;;;;;;5039576;28;20102;-43
2023/04/14 01:15:07;;;;;;;4.78;2.80;;;6.70;99.90;;;;;;5038628;28;20036;-43
2023/04/14 01:18:00;;;;;;;5.03;2.90;;;6.70;99.90;;;;;;5039634;28;20032;-43
2023/04/14 01:20:49;;;;;;;5.18;2.92;;;6.70;99.90;;;;;;5039736;28;20112;-43
2023/04/14 01:23:22;;;;;;;4.38;2.78;;;6.60;99.90;;;;;;5034720;28;20115;-43
2023/04/14 01:26:20;;;;;;;5.90;3.47;;;6.60;99.90;;;;;;5035336;28;20060;-44
2023/04/14 01:29:23;;;;;;;4.63;3.38;;;6.60;99.90;;;;;;5019706;28;20060;-43
2023/04/14 01:32:04;;;;;;;7.00;3.03;;;6.60;99.90;;;;;;5036359;28;20025;-42
2023/04/14 01:34:54;;;;;;;5.07;2.90;;;6.50;99.90;;;;;;5029882;28;20052;-43
2023/04/14 01:37:33;;;;;;;6.82;3.80;;;6.50;99.90;;;;;;5029163;28;20037;-43
2023/04/14 01:40:06;;;;;;;5.28;3.72;;;6.50;99.90;;;;;;5038235;28;20041;-42
2023/04/14 01:42:36;;;;;;;4.78;3.05;;;6.50;99.90;;;;;;5029713;28;20041;-43
2023/04/14 01:45:09;;;;;;;5.53;3.05;;;6.50;99.90;;;;;;5039494;28;20028;-43
2023/04/14 01:47:36;;;;;;;6.15;3.20;;;6.40;99.90;;;;;;5038293;28;20061;-43
2023/04/14 01:50:05;;;;;;;6.20;3.45;;;6.40;99.90;;;;;;5037235;28;20035;-42
2023/04/14 01:52:32;;;;;;;5.70;3.70;;;6.30;99.90;;;;;;5041863;28;20029;-42
2023/04/14 01:54:59;;;;;;;5.47;3.92;;;6.30;99.90;;;;;;5041668;28;20033;-43
2023/04/14 01:57:27;;;;;;;5.22;3.55;;;6.30;99.90;;;;;;5040908;28;20055;-44
2023/04/14 01:59:55;;;;;;;6.65;3.95;;;6.30;99.90;;;;;;5041373;28;20048;-42
2023/04/14 02:02:22;;;;;;;5.32;3.75;;;6.30;99.90;;;;;;5042243;28;20051;-43
2023/04/14 02:04:49;;;;;;;6.13;3.88;;;6.30;99.90;;;;;;5042807;28;20051;-42
2023/04/14 02:07:16;;;;;;;6.72;3.33;;;6.30;99.90;;;;;;5042099;28;20133;-43
2023/04/14 02:09:44;;;;;;;4.05;3.38;;;6.30;99.90;;;;;;5029804;28;20033;-43
2023/04/14 02:12:10;;;;;;;5.93;3.95;;;6.30;99.90;;;;;;5036732;28;20033;-43
2023/04/14 02:14:37;;;;;;;5.13;4.00;;;6.30;99.90;;;;;;5042706;28;20112;-44
2023/04/14 02:17:04;;;;;;;4.75;3.45;;;6.20;99.90;;;;;;5041893;28;20114;-43
2023/04/14 02:19:31;;;;;;;4.95;3.92;;;6.20;99.90;;;;;;5042274;28;20021;-42
2023/04/14 02:21:57;;;;;;;6.63;4.18;;;6.20;99.90;;;;;;5042332;28;20431;-42
2023/04/14 02:24:23;;;;;;;5.60;4.78;;;6.20;99.90;;;;;;5029291;28;20032;-43
2023/04/14 02:26:56;;;;;;;6.43;3.92;;;6.20;99.90;;;;;;5029724;28;20049;-42
2023/04/14 02:29:22;;;;;;;;;;;6.10;99.90;;;;;;5042701;28;20043;-43
2023/04/14 02:32:13;;;;;;;6.53;3.50;;;6.10;99.90;;;;;;5041317;28;19909;-43
2023/04/14 02:34:46;;;;;;;4.88;3.00;;;6.10;99.90;;;;;;5040874;28;20037;-43
2023/04/14 02:37:19;;;;;;;8.10;3.88;;;6.10;99.90;;;;;;5029686;28;20029;-42
2023/04/14 02:39:50;;;;;;;5.97;3.65;;;6.10;99.90;;;;;;5042784;28;20021;-43
2023/04/14 02:42:21;;;;;;;4.43;3.30;;;6.10;99.90;;;;;;5042346;28;20036;-42
2023/04/14 02:44:50;;;;;;;5.70;3.63;;;6.00;99.90;;;;;;5041106;28;20021;-44
2023/04/14 02:47:34;;;;;;;4.45;3.65;;;6.00;99.90;;;;;;5042666;28;20040;-43
2023/04/14 02:50:02;;;;;;;5.43;3.70;;;6.00;99.90;;;;;;5032033;28;20021;-43
2023/04/14 02:52:30;;;;;;;6.03;3.70;;;6.00;99.90;;;;;;5041679;28;20487;-42
2023/04/14 02:54:57;;;;;;;6.63;3.50;;;6.00;99.90;;;;;;5030647;28;20050;-43
2023/04/14 02:57:24;;;;;;;6.03;3.85;;;6.00;99.90;;;;;;5041894;28;20059;-44
2023/04/14 02:59:51;;;;;;;7.05;4.53;;;6.00;99.90;;;;;;5041829;28;20025;-42
2023/04/14 03:02:17;;;;;;;6.68;4.20;;;5.90;99.90;;;;;;5041193;28;20033;-42
2023/04/14 03:04:43;;;;;;;6.70;3.88;;;5.90;99.90;;;;;;5039572;28;20024;-41
2023/04/14 03:07:12;;;;;;;6.10;3.80;;;5.90;99.90;;;;;;5041374;28;20021;-42
2023/04/14 03:09:39;;;;;;;5.10;3.80;;;5.90;99.90;;;;;;5040336;28;20833;-42
2023/04/14 03:12:06;;;;;;;6.03;3.88;;;5.90;99.90;;;;;;5040813;28;20822;-43
2023/04/14 03:14:34;;;;;;;5.15;4.00;;;5.80;99.90;;;;;;5041942;28;20029;-42
2023/04/14 03:17:00;;;;;;;5.50;4.13;;;5.80;99.90;;;;;;5021572;28;20040;-43
2023/04/14 03:19:27;;;;;;;5.13;3.72;;;5.80;99.90;;;;;;5035176;28;20132;-43
2023/04/14 03:21:54;;;;;;;4.15;3.75;;;5.80;99.90;;;;;;5040698;28;20091;-42
2023/04/14 03:24:26;;;;;;;5.80;4.30;;;5.80;99.90;;;;;;5041084;28;20029;-43
2023/04/14 03:26:56;;;;;;;4.50;3.60;;;5.70;99.90;;;;;;5040776;28;20112;-43
2023/04/14 03:29:25;;;;;;;4.93;3.97;;;5.70;99.90;;;;;;5041017;28;20029;-43
2023/04/14 03:31:58;;;;;;;7.00;3.83;;;5.70;99.90;;;;;;5026344;28;20801;-43
2023/04/14 03:34:29;;;;;;;4.13;3.50;;;5.70;99.90;;;;;;5030076;28;20677;-42
2023/04/14 03:36:56;;;;;;;6.25;4.05;;;5.60;99.90;;;;;;5041108;28;20046;-42
2023/04/14 03:39:33;;;;;;;5.55;4.10;;;5.60;99.90;;;;;;5039772;28;20032;-43
2023/04/14 03:42:00;;;;;;;7.53;4.20;;;5.60;99.90;;;;;;5039280;28;20080;-43
2023/04/14 03:44:31;;;;;;;5.93;4.45;;;5.60;99.90;;;;;;5040870;28;20031;-42
2023/04/14 03:46:59;;;;;;;6.22;4.03;;;5.50;99.90;;;;;;5039329;28;20090;-43
2023/04/14 03:49:27;;;;;;;5.68;4.03;;;5.50;99.90;;;;;;5040481;28;20038;-43
2023/04/14 03:51:56;;;;;;;8.40;4.38;;;5.50;99.90;;;;;;5033283;28;20063;-42
2023/04/14 03:54:24;;;;;;;7.68;4.15;;;5.50;99.90;;;;;;5039481;28;20056;-43
2023/04/14 03:56:50;;;;;;;6.50;4.10;;;5.50;99.90;;;;;;5040000;28;20125;-43
2023/04/14 03:59:18;;;;;;;8.30;4.47;;;5.50;99.90;;;;;;5033109;28;20038;-42
2023/04/14 04:01:45;;;;;;;6.55;4.55;;;5.50;99.90;;;;;;5035946;28;20021;-43
2023/04/14 04:04:11;;;;;;;5.88;4.10;;;5.40;99.90;;;;;;5040585;28;20056;-43
2023/04/14 04:06:39;;;;;;;7.40;4.43;;;5.40;99.90;;;;;;5039198;28;20025;-43
2023/04/14 04:09:06;;;;;;;8.43;4.65;;;5.40;99.90;;;;;;5019829;28;20068;-42
2023/04/14 04:11:33;;;;;;;5.72;4.13;;;5.40;99.90;;;;;;5037813;28;20433;-43
2023/04/14 04:14:02;;;;;;;7.00;4.43;;;5.40;99.90;;;;;;5040421;28;20123;-43
2023/04/14 04:16:29;;;;;;;6.13;4.50;;;5.30;99.90;;;;;;5039680;28;20074;-43
2023/04/14 04:18:55;;;;;;;5.57;4.00;;;5.30;99.90;;;;;;5040572;28;20025;-43
2023/04/14 04:21:22;;;;;;;7.60;3.95;;;5.30;99.90;;;;;;5039794;28;20075;-44
2023/04/14 04:23:53;;;;;;;7.20;4.07;;;5.20;99.90;;;;;;5039781;28;20457;-43
2023/04/14 04:26:19;;;;;;;6.85;4.65;;;5.20;99.90;;;;;;5039796;28;20075;-42
2023/04/14 04:28:45;;;;;;;7.60;4.93;;;5.20;99.90;;;;;;5035339;28;20713;-43
2023/04/14 04:31:12;;;;;;;6.55;4.80;;;5.20;99.90;;;;;;5039337;28;20527;-42
2023/04/14 04:33:39;;;;;;;6.85;4.47;;;5.20;99.90;;;;;;5040256;28;20522;-42
2023/04/14 04:36:05;;;;;;;6.32;4.70;;;5.10;99.90;;;;;;5038869;28;20037;-43
2023/04/14 04:38:31;;;;;;;8.27;5.72;;;5.10;99.90;;;;;;5040063;28;20028;-43
2023/04/14 04:40:56;;;;;;;8.43;4.80;;;5.10;99.90;;;;;;5040739;28;20017;-43
2023/04/14 04:43:22;;;;;;;5.68;4.70;;;5.00;99.90;;;;;;5039823;28;20941;-43
2023/04/14 04:46:08;;;;;;;7.72;4.63;;;5.00;99.90;;;;;;5033711;28;20017;-43
2023/04/14 04:48:33;;;;;;;5.95;4.20;;;5.00;99.90;;;;;;5039160;28;20126;-43
2023/04/14 04:50:59;;;;;;;6.95;5.03;;;5.00;99.90;;;;;;5039493;28;20548;-41
2023/04/14 04:53:24;;;;;;;5.65;4.50;;;5.00;99.90;;;;;;5039687;28;20040;-42
2023/04/14 04:55:50;;;;;;;6.05;4.28;;;5.00;99.90;;;;;;5040603;28;20063;-42
2023/04/14 04:58:15;;;;;;;7.38;5.50;;;5.00;99.90;;;;;;5039704;28;20388;-42
2023/04/14 05:00:42;;;;;;;7.20;4.82;;;5.00;99.90;;;;;;5038817;28;20028;-43
2023/04/14 05:03:07;;;;;;;7.30;5.07;;;5.00;99.90;;;;;;5039376;28;20037;-43
2023/04/14 05:05:36;;;;;;;6.28;4.95;;;5.00;99.90;;;;;;5038700;28;20028;-43
2023/04/14 05:08:02;;;;;;;6.93;4.90;;;5.00;99.90;;;;;;5039735;28;20028;-43
2023/04/14 05:10:27;;;;;;;9.90;5.55;;;5.00;99.90;;;;;;5040005;28;20067;-43
2023/04/14 05:12:53;;;;;;;9.88;6.20;;;4.90;99.90;;;;;;5034073;28;20047;-43
2023/04/14 05:15:18;;;;;;;13.40;7.47;;;5.00;99.90;;;;;;5027624;28;20829;-43
2023/04/14 05:17:44;;;;;;;15.77;8.55;;;5.00;99.90;;;;;;5027989;28;20029;-43
2023/04/14 05:20:13;;;;;;;18.63;9.82;;;5.00;99.90;;;;;;5039076;28;20075;-42
2023/04/14 05:22:38;;;;;;;21.38;10.18;;;4.90;99.90;;;;;;5039809;28;20037;-43
2023/04/14 05:25:04;;;;;;;21.40;11.77;;;5.00;99.90;;;;;;5039468;28;20021;-43
2023/04/14 05:27:30;;;;;;;20.67;11.73;;;5.00;99.90;;;;;;5042252;28;20492;-43
2023/04/14 05:29:56;;;;;;;27.38;13.40;;;5.00;99.90;;;;;;5030971;28;20052;-43
2023/04/14 05:32:22;;;;;;;26.40;13.30;;;5.00;99.90;;;;;;5034725;28;20052;-42
2023/04/14 05:34:47;;;;;;;25.90;13.60;;;5.10;99.90;;;;;;5042350;28;20025;-43
2023/04/14 05:37:13;;;;;;;24.83;13.55;;;5.10;99.90;;;;;;5042713;28;20106;-43
2023/04/14 05:39:38;;;;;;;29.75;13.88;;;5.10;99.90;;;;;;5042198;28;20480;-43
2023/04/14 05:42:04;;;;;;;30.90;14.68;;;5.10;99.90;;;;;;5042704;28;20151;-43
2023/04/14 05:44:30;;;;;;;29.52;13.43;;;5.10;99.90;;;;;;5041862;28;20029;-42
2023/04/14 05:46:55;;;;;;;23.00;12.02;;;5.10;99.90;;;;;;5027269;28;20037;-43
2023/04/14 05:49:21;;;;;;;20.70;10.32;;;5.20;99.90;;;;;;5036666;28;20033;-43
2023/04/14 05:51:46;;;;;;;20.48;9.95;;;5.20;99.90;;;;;;5043086;28;20032;-42
2023/04/14 05:54:12;;;;;;;15.98;8.88;;;5.20;99.90;;;;;;5042356;28;20048;-43
2023/04/14 05:56:38;;;;;;;13.68;8.32;;;5.30;99.90;;;;;;5042964;28;20059;-43
2023/04/14 05:59:04;;;;;;;11.65;6.82;;;5.30;99.90;;;;;;5030901;28;20024;-43
2023/04/14 06:01:30;;;;;;;11.52;6.38;;;5.30;99.90;;;;;;5038616;28;20037;-42
2023/04/14 06:03:55;;;;;;;10.75;5.85;;;5.40;99.90;;;;;;5042156;28;20411;-43
2023/04/14 06:06:21;;;;;;;8.98;6.28;;;5.40;99.90;;;;;;5038422;28;20032;-42
2023/04/14 06:08:46;;;;;;;9.18;5.82;;;5.40;99.90;;;;;;5040285;28;20033;-44
2023/04/14 06:11:13;;;;;;;9.10;5.60;;;5.50;99.90;;;;;;5039022;28;20086;-41
2023/04/14 06:13:38;;;;;;;8.13;5.90;;;5.50;99.90;;;;;;5039889;28;20025;-42
2023/04/14 06:16:04;;;;;;;8.20;4.93;;;5.60;99.90;;;;;;5041158;28;20036;-44
2023/04/14 06:18:30;;;;;;;7.85;4.68;;;5.60;99.90;;;;;;5042540;28;20482;-43
2023/04/14 06:20:55;;;;;;;7.57;5.05;;;5.60;99.90;;;;;;5041868;28;20025;-43
2023/04/14 06:23:21;;;;;;;8.88;4.47;;;5.70;99.90;;;;;;5041484;28;20078;-43
2023/04/14 06:25:46;;;;;;;8.38;4.15;;;5.80;99.90;;;;;;5041786;28;20031;-43
2023/04/14 06:28:13;;;;;;;6.03;4.05;;;5.80;99.90;;;;;;5042552;28;20388;-43
2023/04/14 06:30:39;;;;;;;9.80;4.60;;;5.90;99.90;;;;;;5035313;28;20037;-43
2023/04/14 06:33:04;;;;;;;5.20;3.83;;;5.90;99.90;;;;;;5040766;28;20040;-44
2023/04/14 06:35:30;;;;;;;6.97;3.85;;;5.90;99.90;;;;;;5040927;28;20044;-43
2023/04/14 06:37:56;;;;;;;8.43;4.25;;;6.00;99.90;;;;;;5041211;28;20035;-43
2023/04/14 06:40:22;;;;;;;7.90;4.40;;;6.10;99.90;;;;;;5038924;28;20032;-43
2023/04/14 06:42:47;;;;;;;8.18;4.32;;;6.10;99.90;;;;;;5041585;28;20695;-43
2023/04/14 06:45:13;;;;;;;6.20;4.05;;;6.10;99.90;;;;;;5042380;28;20056;-43
2023/04/14 06:47:39;;;;;;;6.32;3.55;;;6.20;99.90;;;;;;5041596;28;20378;-44
2023/04/14 06:50:08;;;;;;;6.53;3.95;;;6.20;99.90;;;;;;5040042;28;20033;-42
2023/04/14 06:52:33;;;;;;;7.15;3.50;;;6.20;99.90;;;;;;5041092;28;20029;-43
2023/04/14 06:54:59;;;;;;;5.45;3.67;;;6.30;99.90;;;;;;5032980;28;20040;-42
2023/04/14 06:57:25;;;;;;;5.40;3.20;;;6.30;99.90;;;;;;5041009;28;20108;-42
2023/04/14 06:59:51;;;;;;;4.15;3.40;;;6.40;99.90;;;;;;5039919;28;20074;-43
2023/04/14 07:02:16;;;;;;;6.03;3.65;;;6.40;99.90;;;;;;5041333;28;20036;-43
2023/04/14 07:04:42;;;;;;;7.05;3.58;;;6.40;99.90;;;;;;5023599;28;20037;-42
2023/04/14 07:07:07;;;;;;;6.68;4.25;;;6.50;99.90;;;;;;5036512;28;20035;-43
2023/04/14 07:09:33;;;;;;;6.30;3.55;;;6.50;99.90;;;;;;5040824;28;20028;-43
2023/04/14 07:12:00;;;;;;;6.03;3.75;;;6.60;99.90;;;;;;5039789;28;20125;-43
2023/04/14 07:14:25;;;;;;;5.82;3.58;;;6.70;99.90;;;;;;5039406;28;20039;-42
2023/04/14 07:16:51;;;;;;;5.72;3.25;;;6.70;99.90;;;;;;5029672;28;20033;-43
2023/04/14 07:19:17;;;;;;;5.38;3.40;;;6.70;99.90;;;;;;5039947;28;20028;-43
2023/04/14 07:21:46;;;;;;;6.80;3.85;;;6.80;99.90;;;;;;5040235;28;20021;-43
2023/04/14 07:24:12;;;;;;;9.45;3.70;;;6.90;99.90;;;;;;5040604;28;20033;-43
2023/04/14 07:26:38;;;;;;;6.40;3.33;;;6.90;99.90;;;;;;5039347;28;20024;-45
2023/04/14 07:29:03;;;;;;;8.25;3.83;;;7.00;99.90;;;;;;5040605;28;20029;-43
2023/04/14 07:31:33;;;;;;;7.68;4.18;;;7.10;99.90;;;;;;5039596;28;20040;-43
2023/04/14 07:33:59;;;;;;;7.10;3.42;;;7.10;99.90;;;;;;5038795;28;20029;-44
2023/04/14 07:36:24;;;;;;;5.40;3.50;;;7.20;99.90;;;;;;5039960;28;20036;-44
2023/04/14 07:38:50;;;;;;;7.38;3.60;;;7.30;99.90;;;;;;5040889;28;20070;-43
2023/04/14 07:41:17;;;;;;;7.07;3.50;;;7.30;99.90;;;;;;5040459;28;20388;-43
2023/04/14 07:43:42;;;;;;;8.25;3.50;;;7.40;99.90;;;;;;5041224;28;20825;-43
2023/04/14 07:46:08;;;;;;;5.72;3.47;;;7.40;99.90;;;;;;5029043;28;20028;-43
2023/04/14 07:48:35;;;;;;;8.30;3.28;;;7.50;99.90;;;;;;5038270;28;20059;-43
2023/04/14 07:51:01;;;;;;;8.48;2.97;;;7.50;99.90;;;;;;5030993;28;20029;-41
2023/04/14 07:53:27;;;;;;;4.68;3.10;;;7.60;99.90;;;;;;5032837;28;20059;-43
2023/04/14 07:55:52;;;;;;;7.05;3.55;;;7.70;99.90;;;;;;5037644;28;20046;-43
2023/04/14 07:58:18;;;;;;;7.40;3.20;;;7.70;99.90;;;;;;5040338;28;20061;-43
2023/04/14 08:00:44;;;;;;;7.60;3.00;;;7.80;99.90;;;;;;5039719;28;20021;-43
2023/04/14 08:03:10;;;;;;;6.93;3.28;;;7.90;99.90;;;;;;5036415;28;20380;-42
2023/04/14 08:05:35;;;;;;;6.90;2.90;;;8.00;99.90;;;;;;5039149;28;20110;-43
2023/04/14 08:08:01;;;;;;;5.35;2.72;;;8.00;99.90;;;;;;5039847;28;20108;-43
2023/04/14 08:10:27;;;;;;;7.65;3.10;;;8.10;99.90;;;;;;5021539;28;20099;-44
2023/04/14 08:12:55;;;;;;;7.65;3.00;;;8.20;99.90;;;;;;5025402;28;20028;-44
2023/04/14 08:15:21;;;;;;;5.88;2.72;;;8.30;99.90;;;;;;5033610;28;20114;-42
2023/04/14 08:17:46;;;;;;;6.28;3.17;;;8.40;99.90;;;;;;5037210;28;20136;-44
2023/04/14 08:20:12;;;;;;;5.55;2.58;;;8.50;99.90;;;;;;5033436;28;20064;-43
2023/04/14 08:22:37;;;;;;;4.43;2.80;;;8.50;99.90;;;;;;5038324;28;20041;-44
2023/04/14 08:25:06;;;;;;;5.32;2.67;;;8.60;99.90;;;;;;5039439;28;20029;-43
2023/04/14 08:27:32;;;;;;;4.13;2.70;;;8.70;99.90;;;;;;5040010;28;20033;-44
2023/04/14 08:29:57;;;;;;;3.63;2.45;;;8.70;99.90;;;;;;5037014;28;20021;-42
2023/04/14 08:32:23;;;;;;;6.93;2.65;;;8.80;99.90;;;;;;5039985;28;20018;-43
2023/04/14 08:34:48;;;;;;;4.30;2.25;;;8.80;99.90;;;;;;5039806;28;20124;-44
2023/04/14 08:37:17;;;;;;;6.68;2.60;;;8.90;99.90;;;;;;5039196;28;20039;-43
2023/04/14 08:39:43;;;;;;;7.53;2.22;;;9.00;99.90;;;;;;5038158;28;20476;-42
2023/04/14 08:42:08;;;;;;;4.35;1.73;;;9.10;99.90;;;;;;5038634;28;20139;-43
2023/04/14 08:44:34;;;;;;;4.00;1.92;;;9.20;99.90;;;;;;5037062;28;20045;-43
2023/04/14 08:47:00;;;;;;;4.75;2.08;;;9.20;99.90;;;;;;5030732;28;20029;-44
2023/04/14 08:50:03;;;;;;;2.60;1.60;;;9.40;99.90;;;;;;5039276;28;20048;-42
2023/04/14 08:52:31;;;;;;;3.87;1.23;;;9.50;99.90;;;;;;5015586;28;20789;-44
2023/04/14 08:54:59;;;;;;;3.20;1.50;;;9.60;99.90;;;;;;5027342;28;20041;-44
2023/04/14 08:57:25;;;;;;;4.53;1.65;;;9.70;99.90;;;;;;5037873;28;20055;-43
2023/04/14 08:59:51;;;;;;;4.95;1.58;;;9.80;99.90;;;;;;5040248;28;20032;-44
2023/04/14 09:02:20;;;;;;;4.38;1.40;;;9.90;99.90;;;;;;5033560;28;20042;-42
2023/04/14 09:04:46;;;;;;;3.45;1.52;;;10.00;99.90;;;;;;5027710;28;20857;-43
2023/04/14 09:07:13;;;;;;;4.47;1.45;;;10.10;99.90;;;;;;5043489;28;20029;-44
2023/04/14 09:09:38;;;;;;;5.05;1.40;;;10.10;99.90;;;;;;5031030;28;20613;-43
2023/04/14 09:12:04;;;;;;;4.55;1.67;;;10.30;99.90;;;;;;5043072;28;20033;-43
2023/04/14 09:14:33;;;;;;;3.67;1.40;;;10.40;99.90;;;;;;5043345;28;20032;-42
2023/04/14 09:16:59;;;;;;;5.40;1.40;;;10.50;99.90;;;;;;5043000;28;20103;-43
2023/04/14 09:19:25;;;;;;;4.35;1.85;;;10.50;99.90;;;;;;5041484;28;20593;-43
2023/04/14 09:21:51;;;;;;;4.25;2.22;;;10.60;99.90;;;;;;5039365;28;20044;-43
2023/04/14 09:24:22;;;;;;;2.53;1.17;;;10.60;99.90;;;;;;5042290;28;20029;-43
2023/04/14 09:26:51;;;;;;;2.50;1.20;;;10.70;99.90;;;;;;5040957;28;20112;-43
2023/04/14 09:29:17;;;;;;;2.45;1.25;;;10.70;99.90;;;;;;5041855;28;20148;-43
2023/04/14 09:31:44;;;;;;;3.25;1.20;;;10.70;99.90;;;;;;5034859;28;20028;-44
2023/04/14 09:34:17;;;;;;;3.33;1.27;;;10.80;99.90;;;;;;5042441;28;20836;-43
2023/04/14 09:37:05;;;;;;;2.92;1.15;;;10.90;99.90;;;;;;5042421;28;20135;-42
2023/04/14 09:39:35;;;;;;;2.80;1.40;;;11.00;99.90;;;;;;5041261;28;20025;-43
2023/04/14 09:42:02;;;;;;;4.78;1.10;;;11.10;99.90;;;;;;5038924;28;20033;-45
2023/04/14 09:44:28;;;;;;;2.15;1.10;;;11.10;99.90;;;;;;5025044;28;20029;-44
2023/04/14 09:47:04;;;;;;;5.05;1.48;;;11.20;99.90;;;;;;5030948;28;20071;-43
2023/04/14 09:49:30;;;;;;;3.60;0.95;;;11.20;99.90;;;;;;5037616;28;20109;-44
2023/04/14 09:52:10;;;;;;;2.38;0.90;;;11.30;99.90;;;;;;5038387;28;20082;-43
2023/04/14 09:54:38;;;;;;;3.50;1.10;;;11.30;99.90;;;;;;5041063;28;20033;-43
2023/04/14 09:57:05;;;;;;;3.97;0.90;;;11.30;99.90;;;;;;5040875;28;20059;-43
2023/04/14 09:59:31;;;;;;;3.03;1.10;;;11.30;99.90;;;;;;5042211;28;20051;-44
2023/04/14 10:01:58;;;;;;;2.30;0.98;;;11.40;99.90;;;;;;5040601;28;20021;-43
2023/04/14 10:04:25;;;;;;;2.53;1.08;;;11.40;99.90;;;;;;5041699;28;20786;-43
2023/04/14 10:06:57;;;;;;;3.22;1.40;;;11.50;99.90;;;;;;5041657;28;20025;-43
2023/04/14 10:09:27;;;;;;;2.92;1.20;;;11.60;99.90;;;;;;5042467;28;20036;-43
2023/04/14 10:12:09;;;;;;;1.23;0.90;;;11.70;99.90;;;;;;5041008;28;20108;-43
2023/04/14 10:14:41;;;;;;;3.53;0.93;;;11.80;99.90;;;;;;5041762;28;20033;-43
2023/04/14 10:17:10;;;;;;;3.33;1.17;;;11.80;99.90;;;;;;5041721;28;20593;-43
2023/04/14 10:19:36;;;;;;;1.25;0.70;;;11.90;99.90;;;;;;5041872;28;20165;-43
2023/04/14 10:22:03;;;;;;;4.00;0.90;;;12.00;99.90;;;;;;5041907;28;20028;-44
2023/04/14 10:24:30;;;;;;;1.98;0.70;;;12.10;99.90;;;;;;5038568;28;20401;-43
2023/04/14 10:26:57;;;;;;;3.38;1.10;;;12.20;99.90;;;;;;5042921;28;20021;-44
2023/04/14 10:29:22;;;;;;;2.63;1.08;;;12.20;99.90;;;;;;5040809;28;20025;-42
2023/04/14 10:32:01;;;;;;;2.20;1.02;;;12.40;99.90;;;;;;5040849;28;20024;-43
2023/04/14 10:34:30;;;;;;;2.83;1.10;;;12.40;99.90;;;;;;5041068;28;20029;-43
2023/04/14 10:37:13;;;;;;;1.88;0.80;;;12.50;99.90;;;;;;5041108;28;20271;-33
2023/04/14 10:39:40;;;;;;;4.65;1.17;;;12.50;99.90;;;;;;5039930;28;20047;-32
2023/04/14 10:42:05;;;;;;;3.33;1.15;;;12.50;99.90;;;;;;5039149;28;20165;-44
2023/04/14 10:44:33;;;;;;;2.00;1.10;;;12.60;99.90;;;;;;5039572;28;20480;-42
2023/04/14 10:47:01;;;;;;;3.33;1.70;;;12.70;99.90;;;;;;5040010;28;20017;-45
2023/04/14 10:49:34;;;;;;;3.25;1.10;;;12.70;99.90;;;;;;5041308;28;20131;-43
2023/04/14 10:52:28;;;;;;;2.17;1.52;;;12.90;99.90;;;;;;5042623;28;20017;-43
2023/04/14 10:55:06;;;;;;;3.42;1.27;;;12.90;99.90;;;;;;5041124;28;20140;-41
2023/04/14 10:57:37;;;;;;;2.15;1.10;;;13.00;99.90;;;;;;5025476;28;20699;-43
2023/04/14 11:00:24;;;;;;;2.78;1.15;;;13.10;99.90;;;;;;5039791;28;20025;-43
2023/04/14 11:02:56;;;;;;;2.78;1.17;;;13.20;99.90;;;;;;5034189;28;20124;-44
2023/04/14 11:05:23;;;;;;;2.63;0.73;;;13.30;99.90;;;;;;5035475;28;20036;-42
2023/04/14 11:07:54;;;;;;;2.97;1.08;;;13.40;99.90;;;;;;5038322;28;20516;-44
2023/04/14 11:10:20;;;;;;;3.10;1.33;;;13.40;99.90;;;;;;5040134;28;20885;-43
2023/04/14 11:12:48;;;;;;;2.83;1.00;;;13.40;99.90;;;;;;5040603;28;20025;-44
2023/04/14 11:15:14;;;;;;;2.15;0.95;;;13.50;99.90;;;;;;5041050;28;20037;-43
2023/04/14 11:17:41;;;;;;;2.75;1.10;;;13.60;99.90;;;;;;5040450;28;20229;-44
2023/04/14 11:20:17;;;;;;;1.92;0.80;;;13.60;99.90;;;;;;5041535;28;20024;-44
2023/04/14 11:22:47;;;;;;;2.47;0.80;;;13.60;99.90;;;;;;5040663;28;20033;-43
2023/04/14 11:25:15;;;;;;;3.15;0.95;;;13.60;99.90;;;;;;5040711;28;20035;-44
2023/04/14 11:27:42;;;;;;;3.58;0.80;;;13.60;99.90;;;;;;5040794;28;20131;-43
2023/04/14 11:30:13;;;;;;;2.15;0.77;;;13.70;99.90;;;;;;5041001;28;20053;-43
2023/04/14 11:32:50;;;;;;;1.67;1.10;;;13.90;99.90;;;;;;5040376;28;20586;-43
2023/04/14 11:35:21;;;;;;;4.50;1.25;;;14.00;99.90;;;;;;5041027;28;20033;-44
2023/04/14 11:37:47;;;;;;;1.77;0.77;;;14.10;99.90;;;;;;5041047;28;20024;-44
2023/04/14 11:40:14;;;;;;;3.25;1.10;;;14.20;99.90;;;;;;5039623;28;20559;-43
2023/04/14 11:42:45;;;;;;;2.10;1.15;;;14.40;99.90;;;;;;5040149;28;20583;-43
2023/04/14 11:45:14;;;;;;;2.92;1.45;;;14.60;99.80;;;;;;5040364;28;20057;-43
2023/04/14 11:47:45;;;;;;;3.00;1.10;;;14.70;99.50;;;;;;5040502;28;20460;-43
2023/04/14 11:50:10;;;;;;;3.80;1.20;;;14.80;99.40;;;;;;5040784;28;20102;-43
2023/04/14 11:52:36;;;;;;;2.58;1.15;;;14.80;99.30;;;;;;5039044;28;20044;-43
2023/04/14 11:55:02;;;;;;;4.18;0.85;;;14.80;99.10;;;;;;5040622;28;20059;-44
2023/04/14 11:57:28;;;;;;;3.00;1.10;;;14.90;99.00;;;;;;5034705;28;20025;-43
2023/04/14 11:59:55;;;;;;;2.72;0.90;;;14.90;98.80;;;;;;5039607;28;20025;-45
2023/04/14 12:02:21;;;;;;;2.08;0.80;;;15.00;98.80;;;;;;5040590;28;20099;-43
2023/04/14 12:04:49;;;;;;;2.38;0.90;;;15.10;98.60;;;;;;5039944;28;20031;-43
2023/04/14 12:07:17;;;;;;;6.35;1.10;;;15.20;98.40;;;;;;5037090;28;20086;-44
2023/04/14 12:09:44;;;;;;;2.17;0.80;;;15.30;97.80;;;;;;5040428;28;20021;-44
2023/04/14 12:12:11;;;;;;;3.00;1.20;;;15.30;97.60;;;;;;5040019;28;20020;-43
2023/04/14 12:14:39;;;;;;;2.60;1.00;;;15.40;97.40;;;;;;5032560;28;20895;-43
2023/04/14 12:17:06;;;;;;;2.60;1.05;;;15.40;97.10;;;;;;5040657;28;20021;-43
2023/04/14 12:19:33;;;;;;;2.30;1.00;;;15.40;97.10;;;;;;5037241;28;20027;-43
2023/04/14 12:21:58;;;;;;;4.10;1.27;;;15.50;97.10;;;;;;5038530;28;20112;-42
2023/04/14 12:24:36;;;;;;;4.28;1.90;;;15.60;97.10;;;;;;5037046;28;20033;-44
2023/04/14 12:27:05;;;;;;;2.05;1.20;;;15.60;96.70;;;;;;5040266;28;20024;-43
2023/04/14 12:29:41;;;;;;;2.95;1.35;;;15.50;96.70;;;;;;5039934;28;20147;-43
2023/04/14 12:32:10;;;;;;;5.05;1.38;;;15.60;96.90;;;;;;5040098;28;20563;-44
2023/04/14 12:34:36;;;;;;;3.88;1.48;;;15.60;96.80;;;;;;5039298;28;20021;-44
2023/04/14 12:37:10;;;;;;;3.60;1.15;;;15.60;96.60;;;;;;5037971;28;20009;-43
2023/04/14 12:39:53;;;;;;;4.15;1.33;;;15.70;96.60;;;;;;5039689;28;20036;-43
2023/04/14 12:42:18;;;;;;;;;;;15.80;96.50;;;;;;5039220;28;20071;-44
2023/04/14 12:44:58;;;;;;;3.30;1.48;;;15.80;96.40;;;;;;5039527;28;19917;-44
2023/04/14 12:47:31;;;;;;;2.88;1.42;;;15.70;95.90;;;;;;5039393;28;20037;-44
2023/04/14 12:49:57;;;;;;;2.83;1.40;;;15.60;95.70;;;;;;5038396;28;20106;-43
2023/04/14 12:52:37;;;;;;;2.45;1.20;;;15.60;95.80;;;;;;5038400;28;20452;-43
2023/04/14 12:55:04;;;;;;;2.70;1.10;;;15.60;95.80;;;;;;5028185;28;20023;-44
2023/04/14 12:57:31;;;;;;;2.67;0.93;;;15.60;95.80;;;;;;5038453;28;20027;-43
2023/04/14 12:59:58;;;;;;;2.53;1.23;;;15.70;95.80;;;;;;5038950;28;20099;-43